This is the latest recevied weather packets stored in our database for station/object KD0SBN. If no packets are shown the sender has not sent any weather packets the latest 1 day(s).
| Time | Temp. | Humidity | Pressure | Rain* | Wind** | Luminosity | Snow |
|---|---|---|---|---|---|---|---|
| 1778115131 | 7.22° C | 69% | 1019.3 hPa | 0 mm | - | - | - |
| 1778114828 | 7.22° C | 71% | 1019.3 hPa | 0 mm | - | - | - |
| 1778114526 | 7.22° C | 71% | 1019.1 hPa | 0 mm | - | - | - |
| 1778114222 | 7.22° C | 72% | 1019.2 hPa | 0 mm | - | - | - |
| 1778113917 | 7.22° C | 71% | 1019.3 hPa | 0 mm | - | - | - |
| 1778113007 | 6.11° C | 73% | 1019.4 hPa | 0 mm | - | - | - |
| 1778112704 | 6.11° C | 74% | 1019.4 hPa | 0 mm | - | - | - |
| 1778110585 | 7.78° C | 74% | 1019.2 hPa | 0 mm | - | - | - |
| 1778107553 | 5.56° C | 84% | 1019.4 hPa | 0 mm | - | - | - |
| 1778106945 | 5° C | 89% | 1019.4 hPa | 0 mm | - | - | - |
| 1778106642 | 4.44° C | 89% | 1019.4 hPa | 0 mm | - | - | - |
| 1778106035 | 4.44° C | 90% | 1019.4 hPa | 0 mm | - | - | - |
| 1778105126 | 3.89° C | 88% | 1019.4 hPa | 1.78 mm | - | - | - |
| 1778103912 | 5° C | 85% | 1019.4 hPa | 0 mm | - | - | - |
| 1778103609 | 5.56° C | 81% | 1019.3 hPa | 0 mm | - | - | - |
| 1778102091 | 5° C | 79% | 1019.4 hPa | 0 mm | - | - | - |
| 1778101182 | 4.44° C | 83% | 1019.1 hPa | 0 mm | - | - | - |
| 1778100878 | 4.44° C | 87% | 1019.3 hPa | 0 mm | - | - | - |
| 1778098757 | 6.67° C | 79% | 1019.2 hPa | 0 mm | - | - | - |
| 1778096332 | 4.44° C | 96% | 1019.3 hPa | 0 mm | - | - | - |
| 1778095119 | 3.89° C | 97% | 1019.3 hPa | 0 mm | - | - | - |
| 1778094815 | 3.33° C | 97% | 1019.3 hPa | 0 mm | - | - | - |
| 1778092694 | 2.22° C | 97% | 1019.4 hPa | 0 mm | - | - | - |
| 1778091481 | 1.67° C | 97% | 1019.7 hPa | 1.78 mm | - | - | - |
| 1778091179 | 1.67° C | 97% | 1019.6 hPa | 1.78 mm | - | - | - |
* Rain latest hour (hover to see other rain measurements)
** Current wind speed in m/s (hover to see current wind gust speed)